CZEM/ZEM METAR and TAF weather

Enter ICAO airport designator
Station Type Date Time Source
CZEM METAR 2020/12/31 21:00 UTC NOAA

CZEM 312100Z 23008KT 12SM -SHSN OVC017 M15/M19 A3015 RMK SC8 LAST STFD OBS/NEXT 011400 UTC SLP213


Station Type Date Time Source
CZEM Decoded METAR 2020/12/31 21:00 UTC NOAA

Eastmain River Airport, Canada (CZEM) 52-14N 078-31W
Dec 31, 2020 - 04:00 PM EST / 2020.12.31 2100 UTC
Wind: from the SW (230 degrees) at 9 MPH (8 KT):0
Visibility: 12 mile(s):0
Sky conditions: overcast
Weather: light snow showers
Temperature: 5 F (-15 C)
Windchill: -9 F (-23 C):2
Dew Point: -2 F (-19 C)
Relative Humidity: 71%
Pressure (altimeter): 30.15 in. Hg (1020 hPa)
ob: CZEM 312100Z 23008KT 12SM -SHSN OVC017 M15/M19 A3015 RMK SC8 LAST STFD OBS/NEXT 011400 UTC SLP213
cycle: 21

Station Type Date Time Source
CZEM TAF UTC NOAA

Error!

Example: see airport list